M I D A S
Marine Information and Data Acquisition System
Tripno 65 of the Zeeleeuw from 2001-10-30 07:18:24 to 2001-10-30 16:50:00
Back to CruiseResearch ActivitiesStationsMapUnderway DataData graphs

EquipmentUnitsComments
TimeDGPSUTC
LatitudeDGPSDM.mWGS84
LongitudeDGPSDM.mWGS84
SpeedMeteo Stationm/sRelative wind speed
DirectionMeteo StationdegRelative wind direction
TemperatureMeteo Stationdeg CelciusAir temperature
PressureMeteo StationPaAtmospheric pressure
HumidityMeteo Station%Relative humidity
Missing or incorrect values are displayed as -999
Metereological data collected by the RV Zeeleeuw from 2001-10-30 07:18:24 to 2001-10-30 16:50:00
Time Latitude Longitude Speed Direction Temperature Pressure Humidity
2001-10-30 07:19 51°13.639 2°56.013 4.8 302 12.3 101950 81
2001-10-30 07:20 51°13.639 2°56.013 5.2 289 12.2 101950 81
2001-10-30 07:21 51°13.639 2°56.014 3.9 284 12.2 101940 81
2001-10-30 07:22 51°13.639 2°56.013 4.6 306 12.3 101950 81
2001-10-30 07:23 51°13.639 2°56.013 4.2 290 12.3 101950 81
2001-10-30 07:24 51°13.639 2°56.014 5.7 294 12.3 101950 80
2001-10-30 07:25 51°13.639 2°56.013 4.8 291 12.3 101950 80
2001-10-30 07:26 51°13.639 2°56.013 6.2 283 12.3 101950 80
2001-10-30 07:27 51°13.639 2°56.014 3.7 293 12.3 101950 80
2001-10-30 07:28 51°13.639 2°56.013 5.1 311 12.3 101950 80
2001-10-30 07:29 51°13.639 2°56.014 4.6 298 12.3 101950 80
2001-10-30 07:30 51°13.639 2°56.013 4.8 296 12.3 101950 81
2001-10-30 07:31 51°13.639 2°56.013 4.9 287 12.2 101940 81
2001-10-30 07:32 51°13.639 2°56.013 4.6 302 12.2 101950 81
2001-10-30 07:33 51°13.639 2°56.013 5.5 292 12.2 101940 81
2001-10-30 07:34 51°13.64 2°56.012 4.9 292 12.1 101940 81
2001-10-30 07:35 51°13.64 2°56.012 6.3 305 12.1 101940 82
2001-10-30 07:36 51°13.64 2°56.012 5 289 12.1 101940 81
2001-10-30 07:37 51°13.64 2°56.011 3.1 284 12.1 101940 82
2001-10-30 07:38 51°13.639 2°56.01 4.8 307 12.1 101930 82
2001-10-30 07:39 51°13.638 2°56.007 3.9 295 12.1 101940 82
2001-10-30 07:40 51°13.619 2°56.034 6.3 308 12.1 101930 82
2001-10-30 07:41 51°13.574 2°56.114 5.2 316 12.1 101930 82
2001-10-30 07:42 51°13.555 2°56.223 4.2 290 12.1 101930 82
2001-10-30 07:43 51°13.523 2°56.297 3 317 12.1 101930 82
2001-10-30 07:44 51°13.52 2°56.295 8.1 6 12.1 101940 82
2001-10-30 07:45 51°13.509 2°56.277 1.3 86 12.1 101940 82
2001-10-30 07:46 51°13.522 2°56.213 1.5 14 12.1 101940 82
2001-10-30 07:47 51°13.561 2°56.111 1.1 24 12.1 101940 82
2001-10-30 07:48 51°13.595 2°56.022 0.9 78 12.1 101940 82
2001-10-30 07:49 51°13.628 2°55.934 2.8 8 12.1 101940 82
2001-10-30 07:50 51°13.693 2°55.792 2.8 258 12.1 101930 82
2001-10-30 07:51 51°13.798 2°55.658 1.7 33 12.1 101940 82
2001-10-30 07:52 51°13.929 2°55.562 2.2 108 12.2 101920 82
2001-10-30 07:53 51°14.074 2°55.462 0.9 134 12.2 101920 81
2001-10-30 07:54 51°14.221 2°55.322 0.9 34 12.2 101920 81
2001-10-30 07:55 51°14.339 2°55.123 1.4 6 12.3 101910 81
2001-10-30 07:56 51°14.454 2°54.903 1.2 320 12.3 101910 80
2001-10-30 07:57 51°14.617 2°54.711 0.5 34 12.4 101900 80
2001-10-30 07:58 51°14.793 2°54.529 2.9 98 12.5 101910 81
2001-10-30 07:59 51°14.962 2°54.337 1 202 12.5 101900 81
2001-10-30 08:00 51°15.132 2°54.153 0.7 64 12.5 101910 81
2001-10-30 08:01 51°15.318 2°53.978 2.4 93 12.6 101910 82
2001-10-30 08:02 51°15.51 2°53.806 2.6 76 12.7 101910 82
2001-10-30 08:03 51°15.703 2°53.635 0.4 95 12.7 101910 82
2001-10-30 08:04 51°15.891 2°53.483 1.8 94 12.7 101910 82
2001-10-30 08:05 51°16.078 2°53.335 2 81 12.7 101910 82
2001-10-30 08:06 51°16.279 2°53.176 1.5 92 12.8 101910 81
2001-10-30 08:07 51°16.477 2°53.024 4.6 105 12.8 101910 82
2001-10-30 08:08 51°16.671 2°52.875 0.7 198 12.9 101910 82
2001-10-30 08:09 51°16.869 2°52.722 1.5 72 12.8 101920 82
2001-10-30 08:10 51°17.063 2°52.57 1.2 73 12.8 101920 82
2001-10-30 08:11 51°17.248 2°52.391 0.9 75 12.9 101910 82
2001-10-30 08:12 51°17.42 2°52.178 0.4 69 12.9 101920 81
2001-10-30 08:13 51°17.581 2°51.941 2.5 5 12.9 101910 82
2001-10-30 08:14 51°17.727 2°51.684 5 325 12.9 101900 82
2001-10-30 08:15 51°17.861 2°51.404 3.4 316 12.9 101910 82
2001-10-30 08:16 51°17.992 2°51.12 3.4 149 12.9 101920 81
2001-10-30 08:17 51°18.115 2°50.826 3.5 213 13 101910 82
2001-10-30 08:18 51°18.24 2°50.531 2.5 255 13 101910 82
2001-10-30 08:19 51°18.363 2°50.235 2.8 211 13 101910 82
2001-10-30 08:20 51°18.486 2°49.936 3.5 332 13.1 101900 82
2001-10-30 08:21 51°18.609 2°49.642 2.7 157 13 101900 80
2001-10-30 08:22 51°18.736 2°49.341 3.6 2 13.1 101900 82
2001-10-30 08:23 51°18.866 2°49.047 4.4 105 13.1 101900 82
2001-10-30 08:24 51°18.994 2°48.751 5 92 13.2 101890 82
2001-10-30 08:25 51°19.122 2°48.455 4.7 332 13.2 101880 82
2001-10-30 08:26 51°19.246 2°48.162 5.4 123 13.2 101910 81
2001-10-30 08:27 51°19.371 2°47.857 6 323 13.2 101890 82
2001-10-30 08:28 51°19.494 2°47.554 5.5 185 13.3 101900 82
2001-10-30 08:29 51°19.618 2°47.248 7.9 117 13.3 101870 81
2001-10-30 08:30 51°19.742 2°46.942 6.4 129 13.4 101870 80
2001-10-30 08:31 51°19.864 2°46.638 9.7 299 13.4 101860 80
2001-10-30 08:32 51°19.927 2°46.288 10.4 44 13.5 101850 81
2001-10-30 08:33 51°20.013 2°45.954 9.7 336 13.6 101860 79
2001-10-30 08:34 51°20.081 2°45.608 8.3 324 13.6 101850 79
2001-10-30 08:35 51°20.148 2°45.255 8 8 13.7 101850 80
2001-10-30 08:36 51°20.215 2°44.906 10 11 13.7 101850 80
2001-10-30 08:37 51°20.283 2°44.554 9.3 353 13.8 101840 80
2001-10-30 08:38 51°20.348 2°44.201 9.8 21 13.9 101830 79
2001-10-30 08:39 51°20.406 2°43.847 10.3 319 14 101840 78
2001-10-30 08:40 51°20.464 2°43.497 8.5 31 14 101840 78
2001-10-30 08:41 51°20.514 2°43.146 10.1 337 14.1 101840 77
2001-10-30 08:42 51°20.565 2°42.798 11.8 32 14.1 101830 77
2001-10-30 08:43 51°20.616 2°42.45 12 334 14.2 101830 77
2001-10-30 08:44 51°20.654 2°42.098 8.9 48 14.2 101830 77
2001-10-30 08:45 51°20.689 2°41.744 7.9 56 14.2 101830 77
2001-10-30 08:46 51°20.718 2°41.39 13.9 329 14.2 101820 76
2001-10-30 08:47 51°20.749 2°41.037 11.7 23 14.3 101810 76
2001-10-30 08:48 51°20.779 2°40.685 12.1 44 14.3 101820 75
2001-10-30 08:49 51°20.81 2°40.334 7.5 53 14.3 101830 76
2001-10-30 08:50 51°20.835 2°39.981 9.1 319 14.3 101810 75
2001-10-30 08:51 51°20.857 2°39.626 14 48 14.3 101810 75
2001-10-30 08:52 51°20.874 2°39.27 10 321 14.3 101820 76
2001-10-30 08:53 51°20.887 2°38.912 8.9 128 14.3 101820 76
2001-10-30 08:54 51°20.9 2°38.554 10.1 47 14.2 101820 76
2001-10-30 08:55 51°20.912 2°38.198 7.1 42 14.3 101820 77
2001-10-30 08:56 51°20.925 2°37.842 8.3 33 14.2 101820 77
2001-10-30 08:57 51°20.939 2°37.49 9.2 43 14.2 101820 76
2001-10-30 08:58 51°20.952 2°37.134 8 52 14.2 101840 77
2001-10-30 08:59 51°20.967 2°36.78 11.2 37 14.2 101830 76
2001-10-30 09:00 51°20.981 2°36.434 8.1 127 14.3 101810 77
2001-10-30 09:01 51°20.998 2°36.071 6.9 52 14.3 101820 77
2001-10-30 09:02 51°21.015 2°35.715 11.4 321 14.3 101820 77
2001-10-30 09:03 51°21.049 2°35.36 7.7 39 14.2 101840 77
2001-10-30 09:04 51°21.081 2°35.01 10.3 42 14.2 101820 78
2001-10-30 09:05 51°21.114 2°34.659 9.8 42 14.2 101810 78
2001-10-30 09:06 51°21.15 2°34.308 9.4 56 14.2 101820 78
2001-10-30 09:07 51°21.214 2°33.973 7 43 14.2 101820 77
2001-10-30 09:08 51°21.334 2°33.683 2.6 99 14.2 101840 77
2001-10-30 09:09 51°21.493 2°33.444 2.1 250 14.2 101850 78
2001-10-30 09:10 51°21.651 2°33.209 3.2 293 14.2 101850 79
2001-10-30 09:11 51°21.815 2°32.99 2.3 22 14.3 101860 79
2001-10-30 09:12 51°21.976 2°32.766 2.4 163 14.2 101840 77
2001-10-30 09:13 51°22.141 2°32.541 3.9 358 14.3 101840 78
2001-10-30 09:14 51°22.282 2°32.274 4.2 106 14.3 101820 77
2001-10-30 09:15 51°22.407 2°31.996 6.9 94 14.4 101830 77
2001-10-30 09:16 51°22.501 2°31.677 7.6 26 14.4 101830 78
2001-10-30 09:17 51°22.561 2°31.355 10.6 35 14.4 101800 77
2001-10-30 09:18 51°22.586 2°31 7.3 60 14.5 101800 78
2001-10-30 09:19 51°22.606 2°30.65 12.3 328 14.6 101790 79
2001-10-30 09:20 51°22.628 2°30.3 10.4 38 14.5 101790 76
2001-10-30 09:21 51°22.602 2°29.961 12.9 46 14.6 101790 76
2001-10-30 09:22 51°22.533 2°29.639 18 321 14.6 101790 77
2001-10-30 09:23 51°22.442 2°29.314 14.8 322 14.6 101780 77
2001-10-30 09:24 51°22.385 2°28.982 13.4 320 14.6 101780 75
2001-10-30 09:25 51°22.351 2°28.636 9.3 53 14.6 101780 76
2001-10-30 09:26 51°22.34 2°28.296 9.4 323 14.7 101790 76
2001-10-30 09:27 51°22.349 2°27.948 8 55 14.6 101770 76
2001-10-30 09:28 51°22.374 2°27.602 10.1 122 14.6 101790 76
2001-10-30 09:29 51°22.396 2°27.255 8 26 14.6 101780 77
2001-10-30 09:30 51°22.437 2°26.912 10.4 126 14.6 101790 76
2001-10-30 09:31 51°22.482 2°26.572 8.8 43 14.7 101780 77
2001-10-30 09:32 51°22.552 2°26.244 6.6 274 14.7 101780 76
2001-10-30 09:33 51°22.64 2°25.926 6.1 326 14.7 101780 77
2001-10-30 09:34 51°22.779 2°25.665 2.3 70 14.7 101790 78
2001-10-30 09:35 51°22.953 2°25.453 1.4 77 14.7 101800 77
2001-10-30 09:36 51°23.14 2°25.259 0.6 92 14.7 101800 78
2001-10-30 09:37 51°23.338 2°25.113 0.6 55 14.8 101780 78
2001-10-30 09:38 51°23.54 2°24.953 1 98 14.8 101790 78
2001-10-30 09:39 51°23.734 2°24.789 1 335 14.8 101780 78
2001-10-30 09:40 51°23.936 2°24.633 1.2 35 14.8 101780 77
2001-10-30 09:41 51°24.138 2°24.505 0.9 96 14.9 101780 78
2001-10-30 09:42 51°24.346 2°24.379 1.6 115 14.9 101790 78
2001-10-30 09:43 51°24.552 2°24.231 1.5 106 14.9 101780 77
2001-10-30 09:44 51°24.757 2°24.104 0.7 344 14.9 101780 78
2001-10-30 09:45 51°24.963 2°23.968 0.8 108 14.9 101760 77
2001-10-30 09:46 51°25.167 2°23.826 1.9 130 15 101760 77
2001-10-30 09:47 51°25.371 2°23.683 1.6 76 15 101760 76
2001-10-30 09:48 51°25.574 2°23.547 2.1 128 15 101760 76
2001-10-30 09:49 51°25.779 2°23.413 1.7 98 15 101750 77
2001-10-30 09:50 51°25.984 2°23.277 0.9 93 15 101760 75
2001-10-30 09:51 51°26.192 2°23.145 1.6 134 15 101750 76
2001-10-30 09:52 51°26.402 2°23.012 1 114 15 101750 77
2001-10-30 09:53 51°26.612 2°22.888 1.9 117 15 101750 77
2001-10-30 09:54 51°26.818 2°22.756 2.2 145 15 101740 77
2001-10-30 09:55 51°27.026 2°22.632 1.6 120 15 101740 76
2001-10-30 09:56 51°27.234 2°22.498 1.3 135 15.1 101740 78
2001-10-30 09:57 51°27.444 2°22.37 0.7 75 15 101730 77
2001-10-30 09:58 51°27.655 2°22.231 1 150 15.1 101740 77
2001-10-30 09:59 51°27.862 2°22.108 0.5 119 15.1 101730 78
2001-10-30 10:00 51°28.072 2°21.98 0.8 92 15.1 101720 76
2001-10-30 10:01 51°28.279 2°21.842 3 134 15.1 101720 77
2001-10-30 10:02 51°28.486 2°21.714 1.3 113 15.2 101720 77
2001-10-30 10:03 51°28.7 2°21.604 1.2 130 15.1 101720 77
2001-10-30 10:04 51°28.922 2°21.52 1.5 135 15.2 101710 77
2001-10-30 10:05 51°29.148 2°21.458 1.8 154 15.2 101720 77
2001-10-30 10:06 51°29.373 2°21.376 1.7 144 15.2 101710 76
2001-10-30 10:07 51°29.595 2°21.306 1.4 139 15.2 101710 77
2001-10-30 10:08 51°29.814 2°21.23 0.5 156 15.2 101710 78
2001-10-30 10:09 51°30.039 2°21.16 1.9 146 15.3 101690 79
2001-10-30 10:10 51°30.264 2°21.092 0.6 310 15.3 101700 78
2001-10-30 10:11 51°30.497 2°21.043 1.5 144 15.4 101700 78
2001-10-30 10:12 51°30.725 2°20.99 2.2 172 15.5 101690 78
2001-10-30 10:13 51°30.958 2°20.927 2.5 137 15.4 101680 78
2001-10-30 10:14 51°31.18 2°20.87 1.4 160 15.4 101680 78
2001-10-30 10:15 51°31.41 2°20.849 0.5 200 15.5 101680 79
2001-10-30 10:16 51°31.642 2°20.876 3.4 178 15.6 101690 78
2001-10-30 10:17 51°31.874 2°20.897 2.2 181 15.5 101680 76
2001-10-30 10:18 51°32.106 2°20.906 2.2 210 15.5 101670 77
2001-10-30 10:19 51°32.337 2°20.932 2.3 208 15.7 101690 76
2001-10-30 10:20 51°32.569 2°20.988 2.3 214 15.7 101680 77
2001-10-30 10:21 51°32.797 2°21.078 4.2 232 15.7 101680 77
2001-10-30 10:22 51°33.015 2°21.228 5.3 259 15.6 101670 76
2001-10-30 10:23 51°33.222 2°21.416 4.9 248 15.5 101660 77
2001-10-30 10:24 51°33.426 2°21.632 5.2 244 15.4 101670 77
2001-10-30 10:25 51°33.618 2°21.863 5.5 262 15.4 101660 78
2001-10-30 10:26 51°33.808 2°22.086 5 263 15.3 101660 78
2001-10-30 10:27 51°34.002 2°22.303 5.3 251 15.2 101660 78
2001-10-30 10:28 51°34.197 2°22.534 5.5 241 15.2 101660 79
2001-10-30 10:29 51°34.392 2°22.762 5.3 248 15.2 101660 78
2001-10-30 10:30 51°34.591 2°22.983 5 245 15.2 101660 79
2001-10-30 10:31 51°34.782 2°23.212 5.1 234 15.2 101660 79
2001-10-30 10:32 51°34.975 2°23.432 5.9 236 15.2 101650 80
2001-10-30 10:33 51°35.17 2°23.654 4.1 231 15.2 101650 79
2001-10-30 10:34 51°35.359 2°23.892 5.5 239 15.2 101640 79
2001-10-30 10:35 51°35.561 2°24.108 3.6 243 15.2 101650 78
2001-10-30 10:36 51°35.756 2°24.338 6.4 266 15.2 101640 78
2001-10-30 10:37 51°35.947 2°24.577 4.9 235 15.3 101650 80
2001-10-30 10:38 51°36.15 2°24.789 3.8 245 15.2 101640 79
2001-10-30 10:39 51°36.343 2°25.028 5 245 15.2 101650 77
2001-10-30 10:40 51°36.541 2°25.247 4.1 216 15.2 101640 78
2001-10-30 10:41 51°36.737 2°25.473 6 236 15.3 101650 78
2001-10-30 10:42 51°36.93 2°25.705 6.2 242 15.3 101650 78
2001-10-30 10:43 51°37.121 2°25.934 4.1 220 15.3 101640 78
2001-10-30 10:44 51°37.315 2°26.152 4.1 242 15.3 101630 77
2001-10-30 10:45 51°37.51 2°26.38 5.8 236 15.3 101630 78
2001-10-30 10:46 51°37.703 2°26.607 5.7 248 15.3 101640 78
2001-10-30 10:47 51°37.902 2°26.834 5.9 243 15.3 101630 78
2001-10-30 10:48 51°38.103 2°27.069 5.6 230 15.3 101630 78
2001-10-30 10:49 51°38.298 2°27.294 4.8 251 15.3 101630 79
2001-10-30 10:50 51°38.497 2°27.537 4.8 252 15.3 101630 78
2001-10-30 10:51 51°38.695 2°27.764 5.2 221 15.3 101620 79
2001-10-30 10:52 51°38.891 2°27.993 5.8 227 15.2 101630 78
2001-10-30 10:53 51°39.095 2°28.211 5.2 232 15.2 101630 78
2001-10-30 10:54 51°39.29 2°28.45 4.9 232 15.2 101610 79
2001-10-30 10:55 51°39.487 2°28.683 5.2 231 15.2 101620 77
2001-10-30 10:56 51°39.686 2°28.919 6 234 15.3 101620 78
2001-10-30 10:57 51°39.882 2°29.139 5.6 231 15.3 101610 77
2001-10-30 10:58 51°40.076 2°29.369 6.7 234 15.4 101610 78
2001-10-30 10:59 51°40.269 2°29.589 5.3 223 15.4 101610 76
2001-10-30 11:00 51°40.465 2°29.821 5.3 217 15.4 101600 77
2001-10-30 11:01 51°40.663 2°30.058 4.9 210 15.5 101600 77
2001-10-30 11:02 51°40.872 2°30.263 3.7 218 15.6 101600 77
2001-10-30 11:03 51°41.091 2°30.423 3.8 175 15.6 101600 77
2001-10-30 11:04 51°41.321 2°30.552 4 197 15.6 101600 76
2001-10-30 11:05 51°41.558 2°30.628 4.1 149 15.6 101580 77
2001-10-30 11:06 51°41.792 2°30.662 5.8 159 15.7 101580 76
2001-10-30 11:07 51°42.026 2°30.749 5 182 16.1 101590 74
2001-10-30 11:08 51°42.264 2°30.818 2.7 157 16.3 101580 74
2001-10-30 11:09 51°42.5 2°30.88 2.6 158 16.5 101580 76
2001-10-30 11:10 51°42.734 2°30.967 3.9 192 16.7 101580 73
2001-10-30 11:11 51°42.971 2°31.031 2.6 197 16.7 101580 74
2001-10-30 11:12 51°43.149 2°31.273 9.1 268 16.5 101570 75
2001-10-30 11:13 51°43.175 2°31.644 14.2 308 16.1 101540 77
2001-10-30 11:14 51°43.078 2°31.964 17.4 325 15.7 101510 78
2001-10-30 11:15 51°42.956 2°32.255 18.8 336 15.5 101510 77
2001-10-30 11:16 51°42.824 2°32.531 17.8 335 15.4 101520 78
2001-10-30 11:17 51°42.688 2°32.8 20.1 335 15.3 101520 79
2001-10-30 11:18 51°42.553 2°33.068 16.7 325 15.3 101540 78
2001-10-30 11:19 51°42.422 2°33.342 17.1 332 15.2 101520 79
2001-10-30 11:20 51°42.287 2°33.608 17.4 332 15.2 101530 79
2001-10-30 11:21 51°42.147 2°33.864 17.8 336 15.2 101540 79
2001-10-30 11:22 51°42.01 2°34.128 17.1 335 15.3 101540 80
2001-10-30 11:23 51°41.873 2°34.393 16.7 335 15.3 101490 78
2001-10-30 11:24 51°41.736 2°34.657 14.9 329 15.3 101520 78
2001-10-30 11:25 51°41.599 2°34.925 15.2 337 15.3 101530 80
2001-10-30 11:26 51°41.46 2°35.192 17 330 15.3 101520 80
2001-10-30 11:27 51°41.323 2°35.464 16.4 331 15.3 101490 79
2001-10-30 11:28 51°41.186 2°35.733 15.9 336 15.3 101500 79
2001-10-30 11:29 51°41.053 2°36.012 16.6 333 15.3 101500 80
2001-10-30 11:30 51°40.926 2°36.303 16.5 327 15.3 101490 79
2001-10-30 11:31 51°40.798 2°36.594 17.2 327 15.2 101490 79
2001-10-30 11:32 51°40.675 2°36.887 16.9 332 15.3 101490 79
2001-10-30 11:33 51°40.564 2°37.196 14.8 322 15.3 101490 78
2001-10-30 11:34 51°40.466 2°37.516 15.8 322 15.3 101490 80
2001-10-30 11:35 51°40.365 2°37.833 16.4 313 15.3 101490 79
2001-10-30 11:36 51°40.271 2°38.159 15.7 316 15.3 101490 79
2001-10-30 11:37 51°40.176 2°38.477 14.2 321 15.4 101480 79
2001-10-30 11:38 51°40.08 2°38.798 14.7 317 15.3 101480 79
2001-10-30 11:39 51°39.989 2°39.124 13.5 320 15.3 101480 80
2001-10-30 11:40 51°39.894 2°39.447 16.8 314 15.3 101460 79
2001-10-30 11:41 51°39.803 2°39.772 13.4 310 15.3 101490 79
2001-10-30 11:42 51°39.71 2°40.1 15.3 321 15.3 101480 79
2001-10-30 11:43 51°39.616 2°40.425 15.8 313 15.3 101460 78
2001-10-30 11:44 51°39.524 2°40.753 14.9 318 15.3 101480 79
2001-10-30 11:45 51°39.431 2°41.078 16.5 312 15.4 101490 80
2001-10-30 11:46 51°39.345 2°41.422 14.4 321 15.4 101480 80
2001-10-30 11:47 51°39.256 2°41.754 14.9 321 15.3 101480 79
2001-10-30 11:48 51°39.168 2°42.088 15 313 15.3 101480 79
2001-10-30 11:49 51°39.078 2°42.42 13.7 321 15.3 101480 79
2001-10-30 11:50 51°38.989 2°42.748 15.5 322 15.3 101490 80
2001-10-30 11:51 51°38.897 2°43.073 15.5 316 15.3 101450 80
2001-10-30 11:52 51°38.813 2°43.404 14.9 309 15.3 101450 79
2001-10-30 11:53 51°38.733 2°43.737 16.4 317 15.3 101460 80
2001-10-30 11:54 51°38.652 2°44.075 14.8 321 15.3 101440 80
2001-10-30 11:55 51°38.567 2°44.4 16.9 318 15.3 101430 78
2001-10-30 11:56 51°38.485 2°44.733 16.2 317 15.3 101410 79
2001-10-30 11:57 51°38.402 2°45.064 18.7 312 15.3 101430 79
2001-10-30 11:58 51°38.317 2°45.394 15.4 320 15.3 101430 78
2001-10-30 11:59 51°38.237 2°45.73 17.2 322 15.3 101430 78
2001-10-30 12:00 51°38.081 2°45.913 21 359 15.4 101460 79
2001-10-30 12:01 51°37.9 2°45.854 20.6 11 15.4 101440 78
2001-10-30 12:02 51°37.714 2°45.801 21.6 5 15.5 101450 78
2001-10-30 12:03 51°37.528 2°45.764 19.4 10 15.5 101470 78
2001-10-30 12:04 51°37.345 2°45.711 20.9 8 15.5 101440 78
2001-10-30 12:05 51°37.163 2°45.639 23 6 15.6 101460 79
2001-10-30 12:06 51°36.98 2°45.579 23.2 11 15.6 101460 77
2001-10-30 12:07 51°36.808 2°45.473 20.9 19 15.6 101420 77
2001-10-30 12:08 51°36.734 2°45.209 10.2 53 15.7 101420 77
2001-10-30 12:09 51°36.821 2°44.909 5.1 17 15.7 101530 77
2001-10-30 12:10 51°36.95 2°44.628 3.8 338 15.7 101520 78
2001-10-30 12:11 51°37.064 2°44.336 4.8 338 15.6 101500 77
2001-10-30 12:12 51°37.193 2°44.051 6.8 129 15.7 101530 77
2001-10-30 12:13 51°37.33 2°43.776 3.9 241 15.7 101510 78
2001-10-30 12:14 51°37.477 2°43.499 0.5 59 15.7 101530 78
2001-10-30 12:15 51°37.623 2°43.225 4.2 17 15.7 101510 77
2001-10-30 12:16 51°37.762 2°42.942 6.7 346 15.8 101510 78
2001-10-30 12:17 51°37.886 2°42.647 7.6 333 15.7 101500 78
2001-10-30 12:18 51°37.996 2°42.342 11.3 283 15.7 101510 78
2001-10-30 12:19 51°38.021 2°42.018 14.2 48 15.8 101460 77
2001-10-30 12:20 51°38.028 2°41.695 13.3 59 15.8 101470 78
2001-10-30 12:21 51°38.032 2°41.383 10.1 56 15.9 101460 78
2001-10-30 12:22 51°38.038 2°41.064 10.5 109 15.9 101440 78
2001-10-30 12:23 51°38.032 2°40.747 13.7 128 15.9 101450 77
2001-10-30 12:24 51°38.018 2°40.438 16.4 52 15.9 101430 78
2001-10-30 12:25 51°37.92 2°40.18 22.8 48 15.9 101420 77
2001-10-30 12:26 51°37.797 2°39.958 21.2 23 16 101410 77
2001-10-30 12:27 51°37.638 2°39.81 24.5 21 16 101440 76
2001-10-30 12:28 51°37.473 2°39.676 21.3 19 16 101440 76
2001-10-30 12:29 51°37.308 2°39.54 22.6 21 16 101440 76
2001-10-30 12:30 51°37.142 2°39.4 20.3 18 16 101450 76
2001-10-30 12:31 51°36.977 2°39.264 24.4 21 16 101450 77
2001-10-30 12:32 51°36.808 2°39.135 23.9 17 16 101440 77
2001-10-30 12:33 51°36.636 2°39.018 21.3 18 16 101440 75
2001-10-30 12:34 51°36.46 2°38.915 22.6 14 16.1 101440 76
2001-10-30 12:35 51°36.285 2°38.814 22.5 19 16 101430 76
2001-10-30 12:36 51°36.11 2°38.713 23.5 24 16 101420 76
2001-10-30 12:37 51°35.934 2°38.612 20.1 14 16.1 101440 76
2001-10-30 12:38 51°35.757 2°38.508 23.7 19 16 101430 77
2001-10-30 12:39 51°35.581 2°38.405 21.3 18 16.1 101440 77
2001-10-30 12:40 51°35.406 2°38.307 21.2 11 16.1 101430 77
2001-10-30 12:41 51°35.242 2°38.446 16.3 345 16.1 101430 76
2001-10-30 12:42 51°35.108 2°38.708 16.2 344 16 101420 77
2001-10-30 12:43 51°34.97 2°38.964 18 342 16 101420 77
2001-10-30 12:44 51°34.828 2°39.216 20 342 16 101410 76
2001-10-30 12:45 51°34.692 2°39.477 19.1 342 16 101420 76
2001-10-30 12:46 51°34.571 2°39.765 17.7 331 16 101390 75
2001-10-30 12:47 51°34.447 2°40.048 17.5 338 15.9 101410 75
2001-10-30 12:48 51°34.329 2°40.341 15.8 330 15.9 101410 76
2001-10-30 12:49 51°34.224 2°40.647 15.9 334 16 101400 76
2001-10-30 12:50 51°34.118 2°40.95 18 333 15.9 101400 77
2001-10-30 12:51 51°34.018 2°41.25 16.4 326 15.9 101410 77
2001-10-30 12:52 51°33.917 2°41.557 15.5 338 15.9 101400 77
2001-10-30 12:53 51°33.813 2°41.861 15.8 330 15.9 101410 76
2001-10-30 12:54 51°33.693 2°42.141 17.8 344 15.9 101430 77
2001-10-30 12:55 51°33.543 2°42.365 18.2 348 15.9 101410 77
2001-10-30 12:56 51°33.383 2°42.57 19 352 16 101430 77
2001-10-30 12:57 51°33.224 2°42.769 19.3 358 16 101430 76
2001-10-30 12:58 51°33.04 2°42.796 20.4 15 16 101430 77
2001-10-30 12:59 51°32.861 2°42.711 18.1 17 16.1 101410 76
2001-10-30 13:00 51°32.68 2°42.632 21.3 21 16.1 101380 75
2001-10-30 13:01 51°32.499 2°42.549 22.1 20 16.1 101370 75
2001-10-30 13:02 51°32.318 2°42.466 19.9 12 16.2 101370 75
2001-10-30 13:03 51°32.136 2°42.382 23.4 13 16.2 101380 75
2001-10-30 13:04 51°31.957 2°42.284 22.3 22 16.2 101350 76
2001-10-30 13:05 51°31.782 2°42.172 25 21 16.2 101360 76
2001-10-30 13:06 51°31.612 2°42.043 24.8 19 16.2 101350 75
2001-10-30 13:07 51°31.447 2°41.901 22.5 18 16.3 101350 76
2001-10-30 13:08 51°31.287 2°41.748 24.6 27 16.2 101350 76
2001-10-30 13:09 51°31.132 2°41.577 24.2 28 16.2 101360 76
2001-10-30 13:10 51°30.974 2°41.412 21.7 20 16.3 101350 75
2001-10-30 13:11 51°30.827 2°41.22 24.6 33 16.3 101350 76
2001-10-30 13:12 51°30.687 2°41.017 22.9 38 16.3 101350 76
2001-10-30 13:13 51°30.555 2°40.796 22.1 31 16.3 101360 76
2001-10-30 13:14 51°30.437 2°40.555 20.2 45 16.3 101350 76
2001-10-30 13:15 51°30.37 2°40.262 13.8 55 16.3 101360 75
2001-10-30 13:16 51°30.348 2°39.938 14.2 59 16.4 101340 76
2001-10-30 13:17 51°30.318 2°39.623 10.9 50 16.4 101350 76
2001-10-30 13:18 51°30.281 2°39.309 8.6 58 16.4 101350 76
2001-10-30 13:19 51°30.245 2°38.996 12.1 49 16.4 101350 76
2001-10-30 13:20 51°30.215 2°38.679 9.2 47 16.5 101360 76
2001-10-30 13:21 51°30.199 2°38.358 10.8 49 16.5 101340 76
2001-10-30 13:22 51°30.178 2°38.034 10.5 59 16.5 101350 76
2001-10-30 13:23 51°30.159 2°37.712 11.4 51 16.5 101330 76
2001-10-30 13:24 51°30.138 2°37.396 10.1 50 16.5 101320 76
2001-10-30 13:25 51°30.121 2°37.082 14.6 49 16.6 101300 76
2001-10-30 13:26 51°30.103 2°36.765 11.3 56 16.6 101300 75
2001-10-30 13:27 51°30.088 2°36.448 13.3 46 16.6 101300 75
2001-10-30 13:28 51°30.075 2°36.128 12 57 16.7 101310 75
2001-10-30 13:29 51°30.051 2°35.815 14.4 50 16.7 101310 74
2001-10-30 13:30 51°29.976 2°35.532 25.2 319 16.8 101280 74
2001-10-30 13:31 51°29.893 2°35.254 27.1 133 16.8 101280 74
2001-10-30 13:32 51°29.793 2°34.994 24.3 43 16.8 101290 74
2001-10-30 13:33 51°29.666 2°34.767 22.5 31 16.9 101290 74
2001-10-30 13:34 51°29.514 2°34.587 23.8 19 16.9 101300 74
2001-10-30 13:35 51°29.332 2°34.505 23.3 10 16.9 101300 74
2001-10-30 13:36 51°29.145 2°34.593 20.1 355 16.9 101340 74
2001-10-30 13:37 51°28.961 2°34.707 21.3 358 16.8 101280 74
2001-10-30 13:38 51°28.775 2°34.804 20.6 1 16.9 101310 75
2001-10-30 13:39 51°28.592 2°34.907 23.1 357 16.8 101290 74
2001-10-30 13:40 51°28.407 2°35.009 22.4 357 16.9 101290 75
2001-10-30 13:41 51°28.221 2°35.108 21.9 359 16.9 101310 75
2001-10-30 13:42 51°28.035 2°35.22 21.6 348 16.9 101310 75
2001-10-30 13:43 51°27.863 2°35.389 21.8 350 16.9 101300 74
2001-10-30 13:44 51°27.684 2°35.545 23.2 351 16.9 101300 75
2001-10-30 13:45 51°27.504 2°35.701 23 354 17 101300 75
2001-10-30 13:46 51°27.323 2°35.853 21.8 359 16.9 101290 75
2001-10-30 13:47 51°27.143 2°36.003 22.1 353 16.9 101290 75
2001-10-30 13:48 51°26.963 2°36.152 19.2 350 17 101280 74
2001-10-30 13:49 51°26.781 2°36.302 21.8 357 17 101310 75
2001-10-30 13:50 51°26.602 2°36.454 22.7 351 17 101280 75
2001-10-30 13:51 51°26.417 2°36.576 23.1 3 17 101300 74
2001-10-30 13:52 51°26.225 2°36.662 20.4 1 17 101300 75
2001-10-30 13:53 51°26.035 2°36.758 21.1 1 17 101320 75
2001-10-30 13:54 51°25.842 2°36.855 21.6 360 17.1 101320 75
2001-10-30 13:55 51°25.649 2°36.951 20.2 354 17.1 101330 74
2001-10-30 13:56 51°25.456 2°37.046 20.8 358 17.1 101330 74
2001-10-30 13:57 51°25.264 2°37.144 22.7 357 17.1 101310 74
2001-10-30 13:58 51°25.071 2°37.242 21.6 358 17.1 101330 74
2001-10-30 13:59 51°24.877 2°37.34 21.6 359 17.2 101330 73
2001-10-30 14:00 51°24.685 2°37.438 21.1 357 17.2 101340 73
2001-10-30 14:01 51°24.486 2°37.533 21.5 359 17.3 101340 73
2001-10-30 14:02 51°24.299 2°37.652 19.6 357 17.3 101350 73
2001-10-30 14:03 51°24.115 2°37.797 19.8 353 17.3 101330 73
2001-10-30 14:04 51°23.917 2°37.863 21.1   17.3 101330 73
2001-10-30 14:05 51°23.719 2°37.923 21.2 355 17.4 101340 72
2001-10-30 14:06 51°23.52 2°37.98 20.2 356 17.4 101330 72
2001-10-30 14:07 51°23.321 2°38.042 21.7 359 17.5 101330 72
2001-10-30 14:08 51°23.121 2°38.101 20.7 356 17.5 101330 72
2001-10-30 14:09 51°22.921 2°38.148 22.3 358 17.5 101340 72
2001-10-30 14:10 51°22.719 2°38.172 21.5 358 17.5 101330 72
2001-10-30 14:11 51°22.511 2°38.201 20.8 358 17.5 101320 72
2001-10-30 14:12 51°22.309 2°38.223 22.2 360 17.5 101320 72
2001-10-30 14:13 51°22.105 2°38.249 23.1 360 17.6 101330 71
2001-10-30 14:14 51°21.896 2°38.287 22.3 348 17.6 101320 71
2001-10-30 14:15 51°21.705 2°38.396 20.9 350 17.7 101310 70
2001-10-30 14:16 51°21.506 2°38.505 20.1 344 17.7 101320 70
2001-10-30 14:17 51°21.327 2°38.659 17.4 340 17.8 101320 69
2001-10-30 14:18 51°21.193 2°38.924 15.5 310 17.7 101310 70
2001-10-30 14:19 51°21.086 2°39.235 14.7 312 17.7 101320 70
2001-10-30 14:20 51°21.009 2°39.556 13 304 17.7 101310 70
2001-10-30 14:21 51°20.941 2°39.89 13.3 310 17.7 101330 70
2001-10-30 14:22 51°20.849 2°40.213 13.5 313 17.7 101320 70
2001-10-30 14:23 51°20.763 2°40.534 14.1 308 17.7 101320 69
2001-10-30 14:24 51°20.677 2°40.85 13.7 308 17.5 101310 73
2001-10-30 14:25 51°20.594 2°41.178 13.5 316 17.3 101320 71
2001-10-30 14:26 51°20.503 2°41.499 16.2 309 17.4 101330 70
2001-10-30 14:27 51°20.414 2°41.817 14.6 307 17.6 101320 70
2001-10-30 14:28 51°20.324 2°42.134 13.6 315 17.7 101320 70
2001-10-30 14:29 51°20.232 2°42.455 15.7 310 17.7 101320 70
2001-10-30 14:30 51°20.143 2°42.77 15 313 17.6 101320 71
2001-10-30 14:31 51°20.052 2°43.094 13.6 310 17.7 101320 70
2001-10-30 14:32 51°19.964 2°43.412 14 313 17.7 101330 70
2001-10-30 14:33 51°19.875 2°43.733 13.7 319 17.7 101320 70
2001-10-30 14:34 51°19.786 2°44.048 15.6 315 17.7 101310 70
2001-10-30 14:35 51°19.696 2°44.37 13.8 311 17.6 101330 70
2001-10-30 14:36 51°19.606 2°44.698 14.4 318 17.6 101310 70
2001-10-30 14:37 51°19.52 2°45.019 15.1 316 17.6 101320 70
2001-10-30 14:38 51°19.432 2°45.329 13.6 317 17.6 101320 70
2001-10-30 14:39 51°19.34 2°45.647 14.5 318 17.7 101330 70
2001-10-30 14:40 51°19.25 2°45.962 14.3 318 17.7 101330 69
2001-10-30 14:41 51°19.16 2°46.279 15.7 311 17.7 101320 69
2001-10-30 14:42 51°19.069 2°46.591 14.9 304 17.8 101340 69
2001-10-30 14:43 51°18.976 2°46.915 15.4 310 17.8 101330 69
2001-10-30 14:44 51°18.885 2°47.229 14.8 307 17.8 101330 69
2001-10-30 14:45 51°18.791 2°47.554 13.9 308 17.8 101330 69
2001-10-30 14:46 51°18.701 2°47.864 13.6 312 17.8 101330 68
2001-10-30 14:47 51°18.609 2°48.185 13.7 309 17.8 101340 69
2001-10-30 14:48 51°18.53 2°48.503 13.6 315 17.7 101340 70
2001-10-30 14:49 51°18.448 2°48.827 13.3 308 17.7 101340 71
2001-10-30 14:50 51°18.369 2°49.145 12.6 310 17.6 101340 71
2001-10-30 14:51 51°18.287 2°49.458 13.9 310 17.6 101340 70
2001-10-30 14:52 51°18.201 2°49.779 13.7 316 17.6 101340 70
2001-10-30 14:53 51°18.117 2°50.098 14.3 307 17.6 101340 70
2001-10-30 14:54 51°18.032 2°50.42 12.5 312 17.6 101340 70
2001-10-30 14:55 51°17.945 2°50.741 13.7 315 17.7 101330 70
2001-10-30 14:56 51°17.854 2°51.048 14.2 315 17.7 101350 70
2001-10-30 14:57 51°17.76 2°51.364 13.8 311 17.7 101340 70
2001-10-30 14:58 51°17.667 2°51.676 13.5 318 17.7 101350 70
2001-10-30 14:59 51°17.553 2°51.959 13.9 325 17.7 101340 70
2001-10-30 15:00 51°17.409 2°52.206 15.9 333 17.7 101340 70
2001-10-30 15:01 51°17.234 2°52.403 18.2 344 17.7 101350 69
2001-10-30 15:02 51°17.054 2°52.564 18.3 341 17.8 101360 69
2001-10-30 15:03 51°16.874 2°52.74 18.4 343 17.8 101360 69
2001-10-30 15:04 51°16.691 2°52.909 16.3 344 17.8 101360 69
2001-10-30 15:05 51°16.506 2°53.079 16.8 342 17.8 101380 70
2001-10-30 15:06 51°16.317 2°53.251 16.8 344 17.7 101370 70
2001-10-30 15:07 51°16.134 2°53.417 18.1 338 17.7 101370 69
2001-10-30 15:08 51°15.945 2°53.591 17.5 345 17.8 101370 69
2001-10-30 15:09 51°15.76 2°53.758 17.8 342 17.9 101370 68
2001-10-30 15:10 51°15.576 2°53.921 17.5 341 17.9 101370 67
2001-10-30 15:11 51°15.391 2°54.087 17.5 346 18 101380 67
2001-10-30 15:12 51°15.203 2°54.255 17.3 339 18 101370 67
2001-10-30 15:13 51°15.02 2°54.429 16.8 343 18 101360 66
2001-10-30 15:14 51°14.839 2°54.595 18.7 340 18.1 101370 66
2001-10-30 15:15 51°14.691 2°54.698 16.3 343 18.2 101390 66
2001-10-30 15:16 51°14.538 2°54.833 15.8 338 18.1 101380 66
2001-10-30 15:17 51°14.402 2°55.013 10.4 320 18.2 101370 65
2001-10-30 15:18 51°14.3 2°55.2 7.1 317 18.2 101420 65
2001-10-30 15:19 51°14.197 2°55.353 8.2 335 18.3 101430 64
2001-10-30 15:20 51°14.083 2°55.447 11.3 343 18.3 101420 64
2001-10-30 15:21 51°13.976 2°55.525 8.8 352 18.3 101430 65
2001-10-30 15:22 51°13.869 2°55.602 10.2 348 18.3 101410 65
2001-10-30 15:23 51°13.798 2°55.657 8.2 345 18.3 101430 65
2001-10-30 15:24 51°13.763 2°55.71 5.7 343 18.2 101430 65
2001-10-30 15:25 51°13.731 2°55.773 7 352 18.2 101430 65
2001-10-30 15:26 51°13.702 2°55.835 5.3 328 18.2 101440 65
2001-10-30 15:27 51°13.689 2°55.895 3.6 313 18.1 101440 66
2001-10-30 15:28 51°13.687 2°55.905 4 296 18.1 101430 65